Time;durP1;ratioP1;P1;durP2;ratioP2;P2;SDS_P1;SDS_P2;PMS_P1;PMS_P2;Temp;Humidity;BMP_temperature;BMP_pressure;BME280_temperature;BME280_humidity;BME280_pressure;Samples;Min_cycle;Max_cycle;Signal;HPM_P1;HPM_P2
2022/11/06 00:01:56;;;;;;;21.58;17.98;;;;;;;11.91;65.58;94468.03;5138272;27;20197;-70
2022/11/06 00:04:23;;;;;;;26.13;23.15;;;;;;;11.91;65.81;94465.25;5137196;27;20238;-70
2022/11/06 00:06:49;;;;;;;31.67;24.55;;;;;;;11.85;66.43;94463.22;5138540;27;20206;-70
2022/11/06 00:09:20;;;;;;;32.42;24.65;;;;;;;11.82;66.43;94464.72;5138502;27;20195;-70
2022/11/06 00:11:47;;;;;;;30.55;23.67;;;;;;;11.81;66.43;94465.88;5138307;27;20188;-70
2022/11/06 00:14:14;;;;;;;28.42;22.30;;;;;;;11.79;66.72;94469.00;5137428;27;20194;-70
2022/11/06 00:16:43;;;;;;;25.95;22.27;;;;;;;11.76;66.57;94458.75;5137330;27;20206;-70
2022/11/06 00:19:10;;;;;;;25.73;21.08;;;;;;;11.74;66.82;94463.03;5136975;27;20607;-70
2022/11/06 00:21:37;;;;;;;24.05;20.20;;;;;;;11.76;66.21;94461.50;5137149;27;20206;-70
2022/11/06 00:24:06;;;;;;;29.80;22.45;;;;;;;11.77;66.17;94454.00;5137352;27;20225;-70
2022/11/06 00:26:35;;;;;;;25.60;22.33;;;;;;;11.72;66.63;94457.88;5138255;27;20195;-70
2022/11/06 00:29:03;;;;;;;32.15;23.17;;;;;;;11.64;66.70;94458.94;5137411;27;20191;-70
2022/11/06 00:31:32;;;;;;;30.27;22.77;;;;;;;11.62;67.05;94461.31;5137225;27;20199;-70
2022/11/06 00:34:00;;;;;;;28.13;21.02;;;;;;;11.56;67.01;94452.53;5137873;27;20179;-70
2022/11/06 00:36:30;;;;;;;24.98;20.63;;;;;;;11.56;67.16;94452.53;5137282;27;20198;-70
2022/11/06 00:38:58;;;;;;;23.08;20.00;;;;;;;11.52;66.77;94448.94;5137733;27;20226;-70
2022/11/06 00:41:26;;;;;;;26.00;20.98;;;;;;;11.50;67.32;94448.50;5136544;27;20619;-70
2022/11/06 00:43:56;;;;;;;24.48;20.23;;;;;;;11.51;67.37;94461.16;5137613;27;20211;-70
2022/11/06 00:46:23;;;;;;;31.05;25.95;;;;;;;11.47;67.09;94457.53;5137363;27;20561;-70
2022/11/06 00:48:50;;;;;;;36.53;29.95;;;;;;;11.40;67.17;94457.47;5136713;27;20198;-70
2022/11/06 00:51:20;;;;;;;34.92;27.30;;;;;;;11.35;67.29;94457.75;5137606;27;20619;-70
2022/11/06 00:53:47;;;;;;;32.17;25.42;;;;;;;11.37;67.19;94455.44;5136491;27;20206;-70
2022/11/06 00:56:15;;;;;;;39.55;28.85;;;;;;;11.35;67.20;94446.72;5136705;27;20191;-70
2022/11/06 00:58:43;;;;;;;33.75;26.63;;;;;;;11.30;67.19;94445.09;5137415;27;20183;-70
2022/11/06 01:01:13;;;;;;;32.42;26.33;;;;;;;11.32;67.80;94441.94;5136034;27;20231;-70
2022/11/06 01:03:41;;;;;;;35.67;28.25;;;;;;;11.29;67.20;94442.69;5136244;27;20206;-70
2022/11/06 01:06:09;;;;;;;37.03;26.73;;;;;;;11.23;67.72;94436.69;5137468;27;20294;-70
2022/11/06 01:08:36;;;;;;;36.05;28.13;;;;;;;11.22;67.67;94446.16;5136295;27;20202;-70
2022/11/06 01:11:06;;;;;;;34.63;27.70;;;;;;;11.18;67.77;94447.25;5136580;27;20191;-70
2022/11/06 01:13:34;;;;;;;33.60;26.42;;;;;;;11.20;67.97;94442.97;5137120;27;20183;-70
2022/11/06 01:16:00;;;;;;;31.75;25.52;;;;;;;11.17;68.42;94445.66;5136118;27;20195;-70
2022/11/06 01:18:28;;;;;;;31.55;24.58;;;;;;;11.19;68.20;94438.63;5137047;27;20179;-70
2022/11/06 01:20:55;;;;;;;30.40;24.60;;;;;;;11.17;68.61;94435.41;5137000;27;20213;-70
2022/11/06 01:23:22;;;;;;;28.73;23.23;;;;;;;11.18;68.62;94437.00;5136603;27;20215;-70
2022/11/06 01:25:57;;;;;;;29.45;23.60;;;;;;;11.22;68.34;94434.28;5136497;27;20195;-70
2022/11/06 01:28:24;;;;;;;26.67;21.85;;;;;;;11.22;68.58;94431.53;5136543;27;20205;-70
2022/11/06 01:30:51;;;;;;;30.05;23.83;;;;;;;11.20;68.31;94428.38;5136289;27;20206;-70
2022/11/06 01:33:18;;;;;;;22.40;19.58;;;;;;;11.17;68.25;94429.09;5136194;27;20191;-70
2022/11/06 01:35:47;;;;;;;25.52;20.20;;;;;;;11.15;67.95;94425.91;5136696;27;20190;-70
2022/11/06 01:38:15;;;;;;;21.50;19.05;;;;;;;11.15;67.80;94426.72;5136330;27;20207;-70
2022/11/06 01:40:42;;;;;;;22.17;19.33;;;;;;;11.17;67.73;94424.38;5136768;27;20283;-70
2022/11/06 01:43:14;;;;;;;29.73;23.27;;;;;;;11.16;67.70;94425.56;5136703;27;20205;-70
2022/11/06 01:45:41;;;;;;;29.55;23.05;;;;;;;11.12;67.81;94421.16;5136548;27;20203;-70
2022/11/06 01:48:08;;;;;;;25.00;22.30;;;;;;;11.11;67.57;94425.88;5135755;27;20188;-70
2022/11/06 01:50:36;;;;;;;26.17;21.33;;;;;;;11.05;67.92;94421.84;5136231;27;20247;-70
2022/11/06 01:53:04;;;;;;;25.88;21.15;;;;;;;11.06;67.57;94421.47;5135132;27;20294;-70
2022/11/06 01:55:35;;;;;;;25.10;20.38;;;;;;;11.09;67.88;94411.66;5135495;27;20198;-70
2022/11/06 01:58:03;;;;;;;24.50;19.98;;;;;;;11.12;67.85;94410.91;5135216;27;20603;-70
2022/11/06 02:00:31;;;;;;;22.40;19.33;;;;;;;11.17;68.07;94409.78;5135975;27;20202;-70
2022/11/06 02:02:58;;;;;;;23.52;20.13;;;;;;;11.19;67.77;94415.75;5136068;27;20252;-70
2022/11/06 02:05:25;;;;;;;23.67;19.77;;;;;;;11.24;67.64;94409.88;5135961;27;20581;-70
2022/11/06 02:07:54;;;;;;;25.60;20.25;;;;;;;11.25;67.36;94409.50;5135955;27;20602;-70
2022/11/06 02:10:22;;;;;;;24.05;19.65;;;;;;;11.29;67.67;94415.06;5135999;28;20191;-70
2022/11/06 02:12:58;;;;;;;23.35;19.27;;;;;;;11.33;67.70;94419.50;5136696;28;20194;-70
2022/11/06 02:15:34;;;;;;;24.80;18.80;;;;;;;11.33;67.84;94413.19;5135890;27;20202;-70
2022/11/06 02:18:12;;;;;;;25.42;19.38;;;;;;;11.36;67.52;94415.19;5135036;28;20190;-70
2022/11/06 02:20:43;;;;;;;22.40;18.48;;;;;;;11.35;67.66;94402.53;5135673;28;20565;-70
2022/11/06 02:23:30;;;;;;;20.20;16.85;;;;;;;11.37;67.36;94402.97;5135881;27;20603;-70
2022/11/06 02:26:09;;;;;;;22.58;17.50;;;;;;;11.38;67.78;94401.00;5135174;28;20214;-70
2022/11/06 02:28:40;;;;;;;23.52;17.80;;;;;;;11.38;67.89;94404.56;5135028;28;20198;-70
2022/11/06 02:31:13;;;;;;;22.60;18.00;;;;;;;11.41;67.99;94398.28;5136247;27;20190;-70
2022/11/06 02:33:44;;;;;;;20.70;17.90;;;;;;;11.43;67.72;94400.66;5136107;27;20194;-70
2022/11/06 02:36:15;;;;;;;19.55;17.38;;;;;;;11.44;67.58;94407.81;5136233;27;20180;-70
2022/11/06 02:38:43;;;;;;;20.00;17.33;;;;;;;11.42;68.23;94407.38;5135228;28;20198;-70
2022/11/06 02:41:13;;;;;;;19.83;16.83;;;;;;;11.40;67.96;94412.47;5134978;28;20183;-70
2022/11/06 02:43:45;;;;;;;19.65;17.52;;;;;;;11.37;68.38;94419.53;5136051;27;20187;-70
2022/11/06 02:46:15;;;;;;;19.50;16.73;;;;;;;11.37;68.56;94413.22;5135265;28;20211;-70
2022/11/06 02:48:45;;;;;;;21.00;17.15;;;;;;;11.38;68.35;94407.31;5134982;28;20599;-70
2022/11/06 02:51:15;;;;;;;12.90;8.90;;;;;;;11.45;68.76;94398.34;5136014;27;20183;-70
2022/11/06 02:53:43;;;;;;;12.35;8.30;;;;;;;11.74;67.47;94399.50;5134880;28;20188;-70
2022/11/06 02:56:12;;;;;;;9.43;7.28;;;;;;;11.93;67.10;94398.56;5135556;28;20195;-70
2022/11/06 02:58:43;;;;;;;8.70;6.88;;;;;;;12.07;66.10;94408.97;5137546;27;20193;-70
2022/11/06 03:01:13;;;;;;;9.93;7.00;;;;;;;12.14;66.06;94407.09;5138531;27;20214;-70
2022/11/06 03:03:42;;;;;;;11.05;7.15;;;;;;;12.24;65.76;94411.16;5138854;27;20190;-70
2022/11/06 03:06:12;;;;;;;10.98;6.55;;;;;;;12.33;64.96;94411.63;5139636;27;20206;-70
2022/11/06 03:08:42;;;;;;;7.07;6.30;;;;;;;12.37;64.82;94417.97;5138781;27;20198;-70
2022/11/06 03:11:12;;;;;;;8.93;6.45;;;;;;;12.42;64.63;94416.84;5138672;27;20229;-70
2022/11/06 03:13:49;;;;;;;9.43;6.50;;;;;;;12.46;64.25;94412.94;5139189;27;20175;-70
2022/11/06 03:16:26;;;;;;;8.75;6.50;;;;;;;12.49;64.44;94420.47;5139527;27;20187;-70
2022/11/06 03:19:00;;;;;;;6.68;5.95;;;;;;;12.51;64.38;94428.38;5139430;27;20187;-70
2022/11/06 03:21:32;;;;;;;8.18;6.25;;;;;;;12.53;64.20;94432.38;5139054;27;20217;-70
2022/11/06 03:24:03;;;;;;;10.13;6.50;;;;;;;12.55;64.44;94434.75;5139227;27;20191;-70
2022/11/06 03:26:33;;;;;;;9.32;6.20;;;;;;;12.56;64.75;94430.00;5138315;27;20214;-70
2022/11/06 03:29:09;;;;;;;7.90;6.88;;;;;;;12.55;64.47;94431.19;5138592;27;20202;-70
2022/11/06 03:31:39;;;;;;;10.25;6.32;;;;;;;12.56;64.41;94433.56;5138109;27;20222;-70
2022/11/06 03:34:09;;;;;;;8.00;6.72;;;;;;;12.56;64.51;94443.81;5137832;27;20645;-70
2022/11/06 03:36:40;;;;;;;10.95;7.88;;;;;;;12.48;65.15;94441.00;5137873;27;20198;-70
2022/11/06 03:39:10;;;;;;;9.82;7.68;;;;;;;12.40;65.30;94447.63;5137861;27;20239;-70
2022/11/06 03:41:40;;;;;;;9.52;7.88;;;;;;;12.38;65.59;94452.75;5137958;27;20204;-70
2022/11/06 03:44:10;;;;;;;12.05;8.02;;;;;;;12.35;66.24;94449.97;5138536;27;20198;-70
2022/11/06 03:46:39;;;;;;;10.57;7.60;;;;;;;12.34;65.92;94451.13;5138782;27;20646;-70
2022/11/06 03:49:09;;;;;;;12.38;8.15;;;;;;;12.29;66.69;94447.53;5138001;27;20650;-70
2022/11/06 03:51:40;;;;;;;8.45;6.80;;;;;;;12.25;67.03;94443.94;5138767;27;20195;-70
2022/11/06 03:54:12;;;;;;;9.15;8.18;;;;;;;12.18;67.45;94432.78;5138061;27;20557;-70
2022/11/06 03:56:42;;;;;;;11.85;8.00;;;;;;;12.15;67.78;94441.03;5138402;27;20620;-70
2022/11/06 03:59:10;;;;;;;9.95;7.40;;;;;;;12.13;67.57;94440.63;5138763;27;20194;-70
2022/11/06 04:01:43;;;;;;;9.15;7.18;;;;;;;12.11;67.87;94437.44;5138542;27;20182;-70
2022/11/06 04:04:14;;;;;;;11.95;7.13;;;;;;;12.10;67.97;94441.41;5138560;27;20260;-70
2022/11/06 04:06:46;;;;;;;11.35;7.43;;;;;;;12.10;68.21;94444.16;5137900;27;20210;-70
2022/11/06 04:14:51;;;;;;;11.27;7.75;;;;;;;12.07;68.45;94448.47;5137130;27;20202;-70
2022/11/06 04:17:19;;;;;;;11.43;7.80;;;;;;;12.03;68.61;94448.44;5138306;27;20183;-70
2022/11/06 04:19:49;;;;;;;9.45;7.10;;;;;;;11.98;69.51;94443.25;5137057;27;20243;-70
2022/11/06 04:22:27;;;;;;;10.30;7.03;;;;;;;11.97;70.10;94452.69;5137223;27;20187;-70
2022/11/06 04:28:03;;;;;;;8.90;7.05;;;;;;;11.95;71.38;94452.28;5137244;27;20202;-70
2022/11/06 04:30:35;;;;;;;7.88;6.97;;;;;;;11.99;71.49;94457.84;5138025;27;20256;-70
2022/11/06 04:33:07;;;;;;;10.48;7.10;;;;;;;12.06;71.13;94454.38;5136805;27;20190;-70
2022/11/06 04:35:44;;;;;;;9.77;7.70;;;;;;;12.06;71.80;94463.47;5138155;27;20186;-70
2022/11/06 04:38:17;;;;;;;10.45;7.13;;;;;;;12.09;71.75;94464.66;5137905;27;20199;-70
2022/11/06 04:40:49;;;;;;;10.50;7.30;;;;;;;12.09;72.17;94459.13;5136596;27;20238;-70
2022/11/06 04:43:23;;;;;;;9.15;6.70;;;;;;;12.09;72.09;94464.66;5136880;27;20230;-70
2022/11/06 04:45:53;;;;;;;9.88;7.40;;;;;;;12.14;71.94;94461.56;5136743;27;20301;-70
2022/11/06 04:48:21;;;;;;;8.85;7.15;;;;;;;12.14;71.76;94467.09;5136984;27;20526;-70
2022/11/06 04:50:51;;;;;;;8.45;7.28;;;;;;;12.18;71.52;94470.69;5136400;27;20203;-70
2022/11/06 04:53:18;;;;;;;9.05;7.10;;;;;;;12.18;70.75;94463.19;5137588;27;20190;-70
2022/11/06 04:55:47;;;;;;;9.00;7.40;;;;;;;12.20;71.01;94462.81;5137188;27;20607;-70
2022/11/06 04:58:14;;;;;;;9.13;7.78;;;;;;;12.13;73.24;94473.78;5136579;27;20211;-70
2022/11/06 05:00:45;;;;;;;7.93;7.20;;;;;;;11.97;74.61;94477.56;5136460;27;20203;-70
2022/11/06 05:03:14;;;;;;;9.30;8.00;;;;;;;11.93;74.71;94484.22;5136746;27;20539;-70
2022/11/06 05:05:40;;;;;;;9.70;7.85;;;;;;;11.85;75.64;94490.84;5136851;27;20222;-70
2022/11/06 05:08:12;;;;;;;10.48;7.45;;;;;;;11.84;75.51;94487.28;5136379;27;20614;-70
2022/11/06 05:10:39;;;;;;;10.07;8.35;;;;;;;11.86;75.41;94498.75;5136318;27;20187;-70
2022/11/06 05:13:07;;;;;;;10.13;7.90;;;;;;;11.87;75.85;94499.53;5136177;27;20217;-70
2022/11/06 05:15:34;;;;;;;10.25;8.07;;;;;;;11.89;75.61;94506.28;5137134;27;20198;-70
2022/11/06 05:18:00;;;;;;;9.40;8.23;;;;;;;11.93;75.76;94507.13;5135815;27;20631;-70
2022/11/06 05:20:29;;;;;;;11.45;8.30;;;;;;;11.95;75.67;94512.28;5136136;27;20199;-70
2022/11/06 05:22:59;;;;;;;10.38;8.48;;;;;;;11.92;76.18;94515.81;5135637;27;20225;-70
2022/11/06 05:25:27;;;;;;;10.88;7.82;;;;;;;11.95;76.19;94517.81;5135861;27;20214;-70
2022/11/06 05:27:54;;;;;;;8.93;8.02;;;;;;;11.97;75.91;94519.00;5136413;27;20199;-70
2022/11/06 05:30:21;;;;;;;10.43;8.32;;;;;;;11.98;76.26;94517.03;5136085;27;20227;-70
2022/11/06 05:32:48;;;;;;;9.75;8.50;;;;;;;11.99;76.24;94524.19;5135573;27;20199;-70
2022/11/06 05:35:15;;;;;;;10.63;9.00;;;;;;;12.01;76.26;94530.13;5136246;27;20199;-70
2022/11/06 05:37:44;;;;;;;16.65;12.20;;;;;;;12.00;76.58;94534.84;5135742;27;20186;-70
2022/11/06 05:40:11;;;;;;;15.43;13.88;;;;;;;12.02;76.70;94532.53;5136339;27;20230;-70
2022/11/06 05:42:38;;;;;;;15.02;13.52;;;;;;;12.04;76.52;94530.16;5135800;27;20510;-70
2022/11/06 05:45:06;;;;;;;17.27;15.70;;;;;;;12.06;76.34;94540.06;5136295;27;20500;-70
2022/11/06 05:47:33;;;;;;;21.63;19.52;;;;;;;12.07;76.19;94534.16;5136107;27;20211;-70
2022/11/06 05:50:00;;;;;;;23.90;21.58;;;;;;;12.11;75.94;94535.00;5136634;27;20183;-70
2022/11/06 05:52:27;;;;;;;24.83;22.33;;;;;;;12.14;75.88;94536.22;5136581;27;20198;-70
2022/11/06 05:54:56;;;;;;;22.55;20.25;;;;;;;12.16;75.32;94542.94;5136112;27;20187;-70
2022/11/06 05:57:22;;;;;;;15.32;13.82;;;;;;;12.16;76.17;94544.91;5136622;27;20206;-70
2022/11/06 05:59:50;;;;;;;14.10;12.60;;;;;;;12.18;75.80;94542.59;5135638;27;20187;-70
2022/11/06 06:02:17;;;;;;;14.18;11.45;;;;;;;12.21;75.53;94550.13;5135513;27;20202;-70
2022/11/06 06:04:44;;;;;;;11.27;10.10;;;;;;;12.24;75.10;94557.69;5135441;27;20194;-70
2022/11/06 06:07:10;;;;;;;11.32;9.18;;;;;;;12.26;75.01;94561.63;5135639;27;20226;-71
2022/11/06 06:09:38;;;;;;;9.55;8.55;;;;;;;12.25;74.69;94564.78;5135793;27;20198;-72
2022/11/06 06:12:06;;;;;;;8.90;8.00;;;;;;;12.25;74.31;94562.03;5135757;28;20183;-72
2022/11/06 06:14:33;;;;;;;10.57;8.80;;;;;;;12.26;73.99;94561.63;5136014;28;20183;-72
2022/11/06 06:17:00;;;;;;;10.63;8.77;;;;;;;12.29;73.78;94557.34;5135272;28;20190;-72
2022/11/06 06:19:27;;;;;;;11.15;8.40;;;;;;;12.29;74.00;94558.13;5136417;28;20191;-72
2022/11/06 06:21:54;;;;;;;11.93;8.50;;;;;;;12.32;73.98;94561.31;5135592;28;20222;-72
2022/11/06 06:24:20;;;;;;;10.48;8.85;;;;;;;12.35;74.05;94572.44;5135865;28;20195;-73
2022/11/06 06:26:48;;;;;;;9.52;8.63;;;;;;;12.38;74.29;94571.69;5136010;28;20211;-73
2022/11/06 06:29:16;;;;;;;9.52;8.65;;;;;;;12.42;74.63;94571.72;5135198;28;20199;-73
2022/11/06 06:31:43;;;;;;;9.40;8.10;;;;;;;12.40;75.03;94583.16;5135218;28;20618;-73
2022/11/06 06:34:10;;;;;;;9.50;8.60;;;;;;;12.39;75.44;94581.56;5138467;27;20603;-73
2022/11/06 06:36:36;;;;;;;10.57;9.57;;;;;;;12.38;75.75;94579.97;5139996;27;20499;-70
2022/11/06 06:39:03;;;;;;;11.32;9.27;;;;;;;12.38;75.90;94581.91;5140227;27;20243;-70
2022/11/06 06:41:31;;;;;;;12.85;8.95;;;;;;;12.39;76.13;94583.53;5139309;27;20195;-70
2022/11/06 06:43:57;;;;;;;9.50;8.60;;;;;;;12.41;76.29;94595.00;5138897;27;20206;-70
2022/11/06 06:46:26;;;;;;;12.57;9.75;;;;;;;12.38;76.74;94588.28;5138892;27;20222;-70
2022/11/06 06:48:53;;;;;;;10.55;9.48;;;;;;;12.38;76.64;94590.22;5139134;27;20194;-70
2022/11/06 06:51:19;;;;;;;12.65;9.63;;;;;;;12.37;76.86;94596.94;5139974;27;20202;-70
2022/11/06 06:53:46;;;;;;;11.55;9.98;;;;;;;12.31;76.87;94588.19;5138631;27;20210;-70
2022/11/06 06:56:14;;;;;;;14.60;9.82;;;;;;;12.32;77.49;94594.50;5139971;27;20630;-70
2022/11/06 06:58:41;;;;;;;11.70;9.98;;;;;;;12.32;77.50;94597.28;5139389;27;20194;-70
2022/11/06 07:01:09;;;;;;;11.48;9.82;;;;;;;12.35;77.05;94597.31;5138859;27;20191;-70
2022/11/06 07:03:38;;;;;;;11.13;9.80;;;;;;;12.35;76.62;94602.84;5139872;27;20248;-70
2022/11/06 07:06:06;;;;;;;12.40;9.57;;;;;;;12.35;76.30;94602.84;5139304;27;20225;-70
2022/11/06 07:08:33;;;;;;;11.07;9.75;;;;;;;12.38;76.60;94601.28;5139324;27;20183;-70
2022/11/06 07:11:00;;;;;;;11.27;10.05;;;;;;;12.39;76.16;94609.22;5139467;27;20194;-70
2022/11/06 07:13:27;;;;;;;11.75;9.95;;;;;;;12.39;75.94;94605.66;5138531;27;20213;-70
2022/11/06 07:15:54;;;;;;;12.05;10.00;;;;;;;12.41;75.98;94601.31;5138559;27;20252;-70
2022/11/06 07:18:21;;;;;;;11.88;10.15;;;;;;;12.43;75.69;94606.50;5138486;27;20195;-70
2022/11/06 07:20:50;;;;;;;11.30;9.65;;;;;;;12.44;75.76;94614.41;5138547;27;20255;-70
2022/11/06 07:23:17;;;;;;;12.35;10.23;;;;;;;12.46;76.01;94616.81;5138936;27;20206;-70
2022/11/06 07:25:43;;;;;;;12.23;10.27;;;;;;;12.50;75.58;94618.44;5138015;27;20191;-70
2022/11/06 07:28:11;;;;;;;12.07;10.32;;;;;;;12.50;75.64;94623.19;5138440;27;20188;-70
2022/11/06 07:30:37;;;;;;;11.02;9.68;;;;;;;12.54;75.46;94626.78;5139272;27;20199;-70
2022/11/06 07:33:06;;;;;;;12.82;10.60;;;;;;;12.58;75.60;94618.53;5138234;27;20252;-70
2022/11/06 07:35:34;;;;;;;13.07;11.32;;;;;;;12.64;75.12;94628.91;5138203;27;20611;-70
2022/11/06 07:38:05;;;;;;;13.45;10.60;;;;;;;12.66;74.98;94623.75;5138092;27;20274;-70
2022/11/06 07:40:32;;;;;;;11.73;10.50;;;;;;;12.71;74.80;94633.72;5138092;27;20269;-70
2022/11/06 07:43:03;;;;;;;11.45;10.35;;;;;;;12.73;74.68;94632.16;5138127;27;20191;-70
2022/11/06 07:45:30;;;;;;;11.88;10.68;;;;;;;12.76;74.47;94633.38;5138584;27;20631;-70
2022/11/06 07:47:57;;;;;;;12.93;10.45;;;;;;;12.79;74.37;94640.13;5138911;27;20223;-70
2022/11/06 07:50:24;;;;;;;13.82;10.95;;;;;;;12.80;74.21;94627.88;5138640;27;20199;-70
2022/11/06 07:52:51;;;;;;;13.50;10.98;;;;;;;12.82;74.11;94625.53;5137866;27;20195;-70
2022/11/06 07:55:20;;;;;;;11.98;10.73;;;;;;;12.84;74.22;94637.81;5138834;27;20218;-70
2022/11/06 07:57:47;;;;;;;13.48;10.05;;;;;;;12.88;74.22;94640.63;5138408;27;20191;-70
2022/11/06 08:00:15;;;;;;;11.60;10.50;;;;;;;12.90;74.10;94641.06;5138798;27;20179;-70
2022/11/06 08:02:42;;;;;;;11.57;10.38;;;;;;;12.91;73.63;94643.44;5138271;27;20191;-70
2022/11/06 08:05:09;;;;;;;15.07;11.60;;;;;;;12.93;73.82;94641.09;5138520;27;20206;-70
2022/11/06 08:07:36;;;;;;;12.18;10.70;;;;;;;12.94;73.86;94645.44;5137676;27;20222;-70
2022/11/06 08:10:04;;;;;;;12.50;11.15;;;;;;;12.95;73.88;94649.81;5138141;27;20240;-70
2022/11/06 08:12:32;;;;;;;13.88;10.93;;;;;;;12.96;73.84;94654.19;5137696;27;20207;-70
2022/11/06 08:14:59;;;;;;;16.63;11.48;;;;;;;12.99;74.32;94652.59;5138325;27;20209;-70
2022/11/06 08:17:27;;;;;;;12.48;11.20;;;;;;;13.00;73.88;94657.00;5137420;27;20202;-70
2022/11/06 08:19:53;;;;;;;13.85;11.90;;;;;;;13.00;73.79;94657.00;5137821;27;20195;-70
2022/11/06 08:22:20;;;;;;;12.60;11.30;;;;;;;13.00;73.67;94652.25;5137415;27;20202;-70
2022/11/06 08:24:47;;;;;;;14.30;12.20;;;;;;;13.03;73.75;94658.97;5137327;27;20195;-72
2022/11/06 08:27:14;;;;;;;14.00;11.77;;;;;;;13.03;73.90;94650.66;5137483;27;20222;-71
2022/11/06 08:29:42;;;;;;;13.40;12.00;;;;;;;13.01;74.34;94656.59;5137160;27;20611;-70
2022/11/06 08:32:09;;;;;;;14.48;11.77;;;;;;;12.99;74.17;94660.91;5137990;27;20221;-71
2022/11/06 08:34:37;;;;;;;17.50;12.50;;;;;;;12.99;74.28;94660.91;5136828;27;20187;-71
2022/11/06 08:37:03;;;;;;;13.95;12.43;;;;;;;13.01;74.60;94658.56;5136978;27;20625;-71
2022/11/06 08:39:30;;;;;;;14.10;12.57;;;;;;;13.04;74.47;94665.34;5137953;27;20222;-71
2022/11/06 08:41:58;;;;;;;14.40;12.68;;;;;;;13.07;74.44;94665.38;5136966;27;20191;-71
2022/11/06 08:44:24;;;;;;;13.50;12.10;;;;;;;13.09;74.58;94668.56;5136909;27;20198;-71
2022/11/06 08:46:52;;;;;;;16.50;12.73;;;;;;;13.08;75.53;94672.50;5136925;27;20214;-71
2022/11/06 08:49:19;;;;;;;19.58;12.65;;;;;;;13.07;76.05;94670.91;5137422;27;20195;-71
2022/11/06 08:51:47;;;;;;;15.02;12.80;;;;;;;13.02;77.03;94674.78;5137129;27;20198;-71
2022/11/06 08:54:14;;;;;;;15.20;12.80;;;;;;;12.99;77.74;94683.06;5137748;27;20180;-71
2022/11/06 08:56:40;;;;;;;14.50;12.65;;;;;;;12.94;78.63;94686.19;5136150;27;20195;-71
2022/11/06 08:59:07;;;;;;;15.23;13.63;;;;;;;12.92;80.13;94685.75;5136666;27;20199;-71
2022/11/06 09:04:20;;;;;;;15.52;14.00;;;;;;;12.91;81.28;94696.03;5136414;27;20778;-71
2022/11/06 09:06:48;;;;;;;17.38;15.20;;;;;;;12.94;81.77;94691.72;5136950;27;20207;-71
2022/11/06 09:09:15;;;;;;;16.63;14.65;;;;;;;12.93;80.96;94703.97;5137579;27;20209;-71
2022/11/06 09:11:41;;;;;;;16.50;13.82;;;;;;;12.96;81.18;94706.78;5136139;27;20607;-71
2022/11/06 09:14:08;;;;;;;21.08;15.38;;;;;;;12.99;81.73;94714.31;5137353;27;20187;-71
2022/11/06 09:16:35;;;;;;;15.45;13.82;;;;;;;13.01;80.43;94711.19;5137202;27;20183;-71
2022/11/06 09:19:02;;;;;;;14.57;13.07;;;;;;;12.99;80.37;94706.00;5137030;27;20198;-71
2022/11/06 09:21:30;;;;;;;14.38;12.88;;;;;;;13.04;80.21;94704.88;5136198;27;20591;-71
2022/11/06 09:23:57;;;;;;;17.52;13.98;;;;;;;13.07;80.55;94701.38;5136253;27;20206;-71
2022/11/06 09:26:24;;;;;;;15.32;12.90;;;;;;;13.09;80.21;94701.78;5136368;27;20202;-71
2022/11/06 09:28:51;;;;;;;15.45;13.32;;;;;;;13.11;80.49;94709.69;5135975;27;20191;-71
2022/11/06 09:31:18;;;;;;;15.75;14.05;;;;;;;13.12;80.25;94709.31;5136975;27;20194;-71
2022/11/06 09:33:44;;;;;;;16.35;13.60;;;;;;;13.12;80.91;94706.56;5135903;27;20209;-71
2022/11/06 09:36:11;;;;;;;15.60;13.73;;;;;;;13.11;81.97;94707.75;5136823;27;20194;-71
2022/11/06 09:38:39;;;;;;;16.02;12.77;;;;;;;13.08;82.08;94708.50;5135763;27;20207;-71
2022/11/06 09:41:06;;;;;;;16.05;13.05;;;;;;;13.05;82.72;94705.69;5136398;27;20321;-71
2022/11/06 09:43:51;;;;;;;14.93;12.30;;;;;;;13.02;82.63;94712.75;5136692;27;20191;-71
2022/11/06 09:46:23;;;;;;;13.75;12.35;;;;;;;12.98;82.67;94712.72;5136597;27;20189;-71
2022/11/06 09:48:54;;;;;;;16.42;12.48;;;;;;;12.97;83.29;94715.88;5136595;27;20179;-71
2022/11/06 09:51:28;;;;;;;17.63;13.02;;;;;;;12.96;84.30;94704.00;5136573;27;20179;-71
2022/11/06 09:54:02;;;;;;;14.75;11.45;;;;;;;12.95;84.43;94715.44;5136669;27;20186;-71
2022/11/06 09:56:32;;;;;;;13.43;12.02;;;;;;;12.93;84.40;94715.84;5136715;27;20179;-71
2022/11/06 09:59:00;;;;;;;13.05;11.75;;;;;;;12.92;84.85;94714.22;5135618;27;20202;-71
2022/11/06 10:01:40;;;;;;;13.18;11.77;;;;;;;12.89;85.50;94703.91;5135218;27;20599;-71
2022/11/06 10:04:17;;;;;;;14.15;12.75;;;;;;;12.87;85.54;94711.00;5136141;27;20186;-71
2022/11/06 10:06:44;;;;;;;13.73;12.38;;;;;;;12.83;85.51;94699.09;5136218;27;20213;-71
2022/11/06 10:09:12;;;;;;;12.52;11.43;;;;;;;12.79;85.83;94698.25;5134524;27;20191;-71
2022/11/06 10:11:52;;;;;;;11.73;10.48;;;;;;;12.79;85.67;94699.03;5135901;27;20201;-71
2022/11/06 10:14:38;;;;;;;11.95;10.85;;;;;;;12.76;85.19;94697.81;5136442;27;20183;-71
2022/11/06 10:17:14;;;;;;;12.30;11.05;;;;;;;12.78;85.17;94697.44;5131465;28;20203;-71
2022/11/06 10:19:48;;;;;;;11.13;9.95;;;;;;;12.78;84.77;94700.19;5135911;28;20206;-71
2022/11/06 10:22:16;;;;;;;10.68;9.68;;;;;;;12.77;84.87;94704.94;5135744;28;20191;-71
2022/11/06 10:24:47;;;;;;;9.70;8.90;;;;;;;12.76;83.75;94710.84;5135153;28;20633;-71
2022/11/06 10:27:16;;;;;;;9.75;8.13;;;;;;;12.75;83.67;94709.28;5136299;27;20214;-71
2022/11/06 10:30:02;;;;;;;9.00;8.10;;;;;;;12.75;83.20;94717.56;5135728;28;20206;-71
2022/11/06 10:32:51;;;;;;;8.52;7.63;;;;;;;12.79;83.06;94706.56;5135627;28;20191;-71
2022/11/06 10:35:21;;;;;;;9.85;8.80;;;;;;;12.81;83.09;94713.28;5135399;28;20214;-71
2022/11/06 10:37:51;;;;;;;9.15;8.35;;;;;;;12.83;83.10;94710.94;5136172;28;20185;-71
2022/11/06 10:40:23;;;;;;;10.82;8.38;;;;;;;12.87;82.72;94705.47;5134886;28;20237;-71
2022/11/06 10:42:56;;;;;;;11.35;8.10;;;;;;;12.88;81.95;94704.28;5135239;28;20209;-71
2022/11/06 10:45:24;;;;;;;9.15;8.25;;;;;;;12.86;82.13;94710.19;5136390;27;20197;-71
2022/11/06 10:47:53;;;;;;;10.73;8.68;;;;;;;12.91;82.67;94701.56;5135419;28;20223;-71
2022/11/06 10:50:22;;;;;;;9.18;8.35;;;;;;;12.95;83.10;94704.38;5135314;28;20199;-71
2022/11/06 10:52:55;;;;;;;9.80;8.80;;;;;;;12.94;83.25;94700.00;5135569;28;20188;-71
2022/11/06 10:55:55;;;;;;;8.75;8.00;;;;;;;12.95;83.11;94701.59;5135759;28;20195;-71
2022/11/06 10:58:23;;;;;;;8.15;7.45;;;;;;;12.96;81.99;94706.78;5135808;28;20191;-71
2022/11/06 11:00:58;;;;;;;7.45;6.75;;;;;;;12.96;82.78;94701.25;5135926;28;20191;-71
2022/11/06 11:03:29;;;;;;;6.95;6.07;;;;;;;12.95;81.93;94707.94;5135587;28;20190;-71
2022/11/06 11:05:57;;;;;;;6.72;5.68;;;;;;;12.95;81.73;94712.66;5134563;28;20630;-71
2022/11/06 11:08:41;;;;;;;6.35;5.60;;;;;;;12.94;81.88;94711.88;5136084;28;20218;-71
2022/11/06 11:11:21;;;;;;;6.80;6.20;;;;;;;12.95;82.94;94698.84;5135736;28;20176;-71
2022/11/06 11:13:50;;;;;;;7.10;6.40;;;;;;;12.97;83.80;94707.56;5135951;28;20190;-71
2022/11/06 11:16:19;;;;;;;8.55;7.75;;;;;;;12.99;84.88;94705.22;5135417;27;20206;-71
2022/11/06 11:18:46;;;;;;;8.30;7.50;;;;;;;13.01;85.79;94705.63;5134698;27;20195;-71
2022/11/06 11:21:23;;;;;;;8.13;7.30;;;;;;;12.99;85.69;94703.22;5138332;27;20210;-71
2022/11/06 11:24:08;;;;;;;7.25;6.55;;;;;;;12.96;86.20;94703.19;5138450;27;20202;-71
2022/11/06 11:26:38;;;;;;;7.75;7.05;;;;;;;12.96;86.39;94701.25;5138350;27;20195;-71
2022/11/06 11:29:13;;;;;;;7.15;6.45;;;;;;;12.92;86.17;94696.81;5139128;27;20242;-71
2022/11/06 11:31:40;;;;;;;7.13;6.43;;;;;;;12.88;86.48;94705.06;5121479;27;20209;-71
2022/11/06 11:34:16;;;;;;;6.65;5.97;;;;;;;12.88;86.58;94704.28;5138260;27;20191;-71
2022/11/06 11:36:58;;;;;;;6.88;6.15;;;;;;;12.87;86.52;94700.72;5139197;27;20199;-71
2022/11/06 11:39:28;;;;;;;6.80;6.18;;;;;;;12.87;86.61;94694.38;5139064;27;20287;-71
2022/11/06 11:42:16;;;;;;;7.38;6.68;;;;;;;12.87;86.30;94695.19;5138212;27;20191;-71
2022/11/06 11:44:43;;;;;;;7.95;7.25;;;;;;;12.87;85.95;94695.19;5138619;27;20187;-71